createdAt,value
2018-07-24T00:00:19.998Z,58.20
2018-07-24T00:02:24.496Z,58.30
2018-07-24T00:04:28.926Z,58.40
2018-07-24T00:06:33.387Z,58.40
2018-07-24T00:08:37.843Z,58.50
2018-07-24T00:10:42.288Z,58.60
2018-07-24T00:12:46.776Z,58.50
2018-07-24T00:14:51.197Z,58.50
2018-07-24T00:16:55.726Z,58.50
2018-07-24T00:19:00.153Z,58.60
2018-07-24T00:21:04.666Z,58.70
2018-07-24T00:23:09.369Z,58.80
2018-07-24T00:25:13.826Z,58.80
2018-07-24T00:27:18.311Z,58.80
2018-07-24T00:29:22.743Z,58.80
2018-07-24T00:31:27.291Z,58.80
2018-07-24T00:35:36.022Z,59.10
2018-07-24T00:37:40.501Z,59.00
2018-07-24T00:39:44.943Z,59.20
2018-07-24T00:41:49.367Z,59.20
2018-07-24T00:43:53.822Z,59.10
2018-07-24T00:45:58.578Z,59.20
2018-07-24T00:48:03.088Z,59.20
2018-07-24T00:50:07.576Z,59.40
2018-07-24T00:52:12.075Z,59.30
2018-07-24T00:54:16.555Z,59.40
2018-07-24T00:56:20.994Z,59.60
2018-07-24T00:58:25.438Z,59.60
2018-07-24T01:00:32.770Z,59.60
2018-07-24T01:02:40.300Z,59.70
2018-07-24T01:04:48.122Z,59.80
2018-07-24T01:06:55.339Z,59.80
2018-07-24T01:09:01.990Z,59.90
2018-07-24T01:11:10.179Z,59.90
2018-07-24T01:13:17.391Z,60.00
2018-07-24T01:15:25.987Z,60.20
2018-07-24T01:17:33.668Z,60.30
2018-07-24T01:19:39.927Z,60.30
2018-07-24T01:21:45.770Z,60.20
2018-07-24T01:23:51.386Z,60.20
2018-07-24T01:25:58.634Z,60.20
2018-07-24T01:28:07.038Z,60.00
2018-07-24T01:30:15.017Z,60.00
2018-07-24T01:32:23.485Z,60.00
2018-07-24T01:34:30.542Z,60.10
2018-07-24T01:36:36.294Z,60.20
2018-07-24T01:38:42.729Z,60.30
2018-07-24T01:40:49.330Z,60.40
2018-07-24T01:42:55.261Z,60.50
2018-07-24T01:45:04.841Z,60.50
2018-07-24T01:49:18.659Z,61.60
2018-07-24T01:51:25.535Z,60.80
2018-07-24T01:53:31.997Z,60.90
2018-07-24T01:55:40.787Z,60.80
2018-07-24T01:57:46.515Z,60.90
2018-07-24T01:59:52.101Z,61.00
2018-07-24T02:02:00.838Z,61.10
2018-07-24T02:04:09.170Z,61.10
2018-07-24T02:06:16.806Z,61.10
2018-07-24T02:08:23.150Z,61.20
2018-07-24T02:10:30.932Z,61.30
2018-07-24T02:12:38.584Z,61.30
2018-07-24T02:14:47.016Z,61.40
2018-07-24T02:16:53.469Z,62.10
2018-07-24T02:19:00.084Z,61.40
2018-07-24T02:21:04.877Z,61.60
2018-07-24T02:23:09.421Z,61.60
2018-07-24T02:25:13.849Z,61.50
2018-07-24T02:27:18.330Z,61.50
2018-07-24T02:31:26.990Z,61.50
2018-07-24T02:33:31.412Z,61.50
2018-07-24T02:35:35.913Z,61.50
2018-07-24T02:37:40.443Z,61.50
2018-07-24T02:39:44.967Z,61.40
2018-07-24T02:41:49.704Z,61.40
2018-07-24T02:43:54.143Z,61.50
2018-07-24T02:45:58.618Z,61.50
2018-07-24T02:48:03.104Z,61.50
2018-07-24T02:50:07.561Z,61.70
2018-07-24T02:52:12.067Z,61.70
2018-07-24T02:54:16.602Z,61.70
2018-07-24T02:56:21.039Z,61.70
2018-07-24T02:58:25.469Z,61.60
2018-07-24T03:00:29.935Z,61.70
2018-07-24T03:02:34.370Z,61.80
2018-07-24T03:06:42.935Z,62.20
2018-07-24T03:08:47.401Z,62.20
2018-07-24T03:10:51.937Z,61.50
2018-07-24T03:12:56.418Z,62.30
2018-07-24T03:15:00.851Z,62.40
2018-07-24T03:17:05.908Z,63.20
2018-07-24T03:19:10.326Z,62.40
2018-07-24T03:21:14.767Z,62.40
2018-07-24T03:23:19.163Z,62.30
2018-07-24T03:25:23.546Z,62.30
2018-07-24T03:27:28.024Z,63.30
2018-07-24T03:29:32.458Z,62.40
2018-07-24T03:31:36.858Z,62.40
2018-07-24T03:33:41.247Z,62.50
2018-07-24T03:37:49.920Z,62.60
2018-07-24T03:39:54.351Z,62.60
2018-07-24T03:41:58.782Z,62.70
2018-07-24T03:46:08.344Z,63.40
2018-07-24T03:48:12.926Z,62.90
2018-07-24T03:50:17.338Z,63.20
2018-07-24T03:52:22.722Z,63.30
2018-07-24T03:54:27.159Z,63.30
2018-07-24T03:56:31.592Z,63.30
2018-07-24T03:58:36.033Z,63.30
2018-07-24T04:00:44.181Z,63.30
2018-07-24T04:02:52.859Z,63.20
2018-07-24T04:05:00.225Z,63.20
2018-07-24T04:07:07.136Z,63.30
2018-07-24T04:09:13.722Z,63.40
2018-07-24T04:11:19.279Z,63.40
2018-07-24T04:13:25.899Z,63.40
2018-07-24T04:15:34.274Z,63.50
2018-07-24T04:17:41.391Z,63.70
2018-07-24T04:19:48.810Z,63.70
2018-07-24T04:23:58.614Z,63.80
2018-07-24T04:26:03.101Z,63.70
2018-07-24T04:28:07.567Z,63.70
2018-07-24T04:30:12.079Z,63.80
2018-07-24T04:32:16.511Z,63.90
2018-07-24T04:36:25.067Z,64.20
2018-07-24T04:38:29.477Z,64.40
2018-07-24T04:40:33.931Z,64.50
2018-07-24T04:42:38.373Z,64.60
2018-07-24T04:44:42.867Z,64.60
2018-07-24T04:46:47.309Z,64.70
2018-07-24T04:48:52.116Z,64.70
2018-07-24T04:50:56.566Z,64.80
2018-07-24T04:53:00.995Z,64.80
2018-07-24T04:55:05.645Z,64.80
2018-07-24T04:57:10.119Z,64.80
2018-07-24T04:59:14.591Z,64.90
2018-07-24T05:01:19.039Z,64.90
2018-07-24T05:03:23.530Z,65.10
2018-07-24T05:05:28.122Z,65.30
2018-07-24T05:07:32.655Z,65.40
2018-07-24T05:09:37.099Z,65.60
2018-07-24T05:11:41.547Z,65.70
2018-07-24T05:13:46.046Z,66.00
2018-07-24T05:17:54.911Z,66.40
2018-07-24T05:19:59.694Z,66.20
2018-07-24T05:22:04.181Z,66.40
2018-07-24T05:24:09.099Z,66.60
2018-07-24T05:26:13.567Z,67.00
2018-07-24T05:28:18.047Z,67.10
2018-07-24T05:30:24.946Z,67.10
2018-07-24T05:32:29.478Z,67.20
2018-07-24T05:34:33.923Z,67.60
2018-07-24T05:36:38.910Z,67.90
2018-07-24T05:38:43.348Z,67.90
2018-07-24T05:40:47.868Z,68.00
2018-07-24T05:42:52.482Z,68.00
2018-07-24T05:44:56.902Z,68.20
2018-07-24T05:49:05.902Z,68.70
2018-07-24T05:51:10.369Z,68.20
2018-07-24T05:53:14.846Z,68.30
2018-07-24T05:55:19.300Z,68.00
2018-07-24T05:57:24.067Z,68.10
2018-07-24T05:59:28.488Z,68.10
2018-07-24T06:03:39.318Z,68.20
2018-07-24T06:05:43.790Z,68.00
2018-07-24T06:07:48.202Z,67.80
2018-07-24T06:09:52.718Z,67.70
2018-07-24T06:14:01.357Z,67.50
2018-07-24T06:16:05.980Z,67.30
2018-07-24T06:18:10.615Z,67.20
2018-07-24T06:20:15.129Z,68.00
2018-07-24T06:22:19.621Z,67.10
2018-07-24T06:24:24.139Z,66.90
2018-07-24T06:26:28.602Z,66.90
2018-07-24T06:28:33.042Z,66.70
2018-07-24T06:30:37.731Z,67.30
2018-07-24T06:32:42.254Z,66.50
2018-07-24T06:34:46.683Z,66.50
2018-07-24T06:36:51.399Z,66.20
2018-07-24T06:38:55.964Z,66.00
2018-07-24T06:41:00.415Z,65.80
2018-07-24T06:43:04.871Z,65.60
2018-07-24T06:45:09.372Z,65.50
2018-07-24T06:49:18.571Z,65.40
2018-07-24T06:51:23.105Z,65.10
2018-07-24T06:53:27.503Z,65.00
2018-07-24T06:55:32.083Z,64.80
2018-07-24T06:59:41.505Z,64.80
2018-07-24T07:01:45.974Z,64.80
2018-07-24T07:03:50.398Z,64.40
2018-07-24T07:05:54.850Z,64.20
2018-07-24T07:07:59.310Z,63.90
2018-07-24T07:12:07.989Z,63.80
2018-07-24T07:14:12.506Z,63.50
2018-07-24T07:18:24.294Z,63.00
2018-07-24T07:20:30.830Z,63.00
2018-07-24T07:22:35.302Z,63.00
2018-07-24T07:24:39.788Z,62.70
2018-07-24T07:26:44.478Z,62.60
2018-07-24T07:28:48.914Z,62.20
2018-07-24T07:30:53.426Z,62.10
2018-07-24T07:32:57.921Z,62.00
2018-07-24T07:35:02.367Z,62.30
2018-07-24T07:37:06.855Z,61.10
2018-07-24T07:39:14.881Z,60.70
2018-07-24T07:41:23.950Z,61.80
2018-07-24T07:43:28.455Z,60.10
2018-07-24T07:45:32.890Z,59.80
2018-07-24T07:51:46.151Z,59.00
2018-07-24T07:53:50.603Z,58.30
2018-07-24T07:55:55.047Z,57.50
2018-07-24T07:57:59.521Z,58.20
2018-07-24T08:00:04.183Z,57.80
2018-07-24T08:02:12.437Z,57.60
2018-07-24T08:04:16.982Z,56.80
2018-07-24T08:06:21.351Z,56.00
2018-07-24T08:08:25.896Z,55.90
2018-07-24T08:10:30.386Z,54.80
2018-07-24T08:12:35.339Z,54.00
2018-07-24T08:14:39.816Z,53.60
2018-07-24T08:16:44.267Z,52.40
2018-07-24T08:18:48.738Z,51.10
2018-07-24T08:20:53.215Z,50.40
2018-07-24T08:22:57.702Z,49.40
2018-07-24T08:25:03.035Z,48.40
2018-07-24T08:27:07.541Z,47.90
2018-07-24T08:29:12.303Z,47.30
2018-07-24T08:31:16.783Z,46.60
2018-07-24T08:33:21.217Z,46.50
2018-07-24T08:35:25.724Z,45.90
2018-07-24T08:37:30.198Z,45.40
2018-07-24T08:39:34.659Z,45.20
2018-07-24T08:41:39.137Z,44.20
2018-07-24T08:43:43.567Z,43.80
2018-07-24T08:45:47.967Z,42.90
2018-07-24T08:47:52.555Z,42.30
2018-07-24T08:52:01.330Z,41.50
2018-07-24T08:54:05.905Z,41.80
2018-07-24T08:56:10.270Z,41.50
2018-07-24T08:58:15.154Z,41.00
2018-07-24T09:00:19.646Z,41.00
2018-07-24T09:02:24.114Z,41.00
2018-07-24T09:06:32.991Z,40.10
2018-07-24T09:08:37.438Z,39.80
2018-07-24T09:10:41.929Z,39.80
2018-07-24T09:12:46.402Z,39.00
2018-07-24T09:14:50.854Z,39.00
2018-07-24T09:16:55.524Z,38.60
2018-07-24T09:19:00.025Z,38.30
2018-07-24T09:21:04.784Z,38.30
2018-07-24T09:23:11.680Z,38.00
2018-07-24T09:25:16.142Z,37.80
2018-07-24T09:27:20.622Z,37.30
2018-07-24T09:29:27.449Z,37.80
2018-07-24T09:33:36.333Z,36.80
2018-07-24T09:35:40.779Z,36.80
2018-07-24T09:37:45.258Z,36.20
2018-07-24T09:39:49.723Z,35.70
2018-07-24T09:41:54.142Z,35.40
2018-07-24T09:43:58.616Z,35.40
2018-07-24T09:46:03.027Z,35.50
2018-07-24T09:50:11.686Z,35.50
2018-07-24T09:52:16.186Z,34.70
2018-07-24T09:54:20.618Z,34.70
2018-07-24T09:56:25.128Z,34.40
2018-07-24T10:02:43.358Z,34.60
2018-07-24T10:04:47.876Z,34.80
2018-07-24T10:06:52.844Z,35.60
2018-07-24T10:08:57.362Z,34.80
2018-07-24T10:11:01.966Z,35.40
2018-07-24T10:13:06.732Z,34.90
2018-07-24T10:15:11.075Z,34.60
2018-07-24T10:17:15.530Z,34.60
2018-07-24T10:21:24.051Z,34.10
2018-07-24T10:23:28.522Z,33.90
2018-07-24T10:25:32.923Z,33.80
2018-07-24T10:27:37.363Z,34.00
2018-07-24T10:29:42.038Z,33.60
2018-07-24T10:33:51.057Z,32.80
2018-07-24T10:35:55.791Z,32.60
2018-07-24T10:38:00.233Z,32.60
2018-07-24T10:40:05.052Z,32.50
2018-07-24T10:42:09.596Z,31.90
2018-07-24T10:44:14.251Z,32.20
2018-07-24T10:46:18.730Z,32.00
2018-07-24T10:48:23.290Z,31.60
2018-07-24T10:50:27.748Z,32.10
2018-07-24T10:54:36.403Z,31.00
2018-07-24T10:56:41.042Z,31.00
2018-07-24T10:58:45.520Z,30.80
2018-07-24T11:00:50.067Z,30.60
2018-07-24T11:02:54.608Z,30.70
2018-07-24T11:04:59.574Z,30.50
2018-07-24T11:07:04.176Z,30.20
2018-07-24T11:09:09.485Z,30.20
2018-07-24T11:11:14.062Z,30.20
2018-07-24T11:13:18.817Z,29.90
2018-07-24T11:15:23.278Z,30.00
2018-07-24T11:17:27.746Z,29.80
2018-07-24T11:19:32.310Z,29.60
2018-07-24T11:21:36.816Z,29.30
2018-07-24T11:23:41.367Z,29.30
2018-07-24T11:25:45.934Z,28.90
2018-07-24T11:27:50.417Z,28.80
2018-07-24T11:29:54.861Z,28.60
2018-07-24T11:34:03.637Z,28.20
2018-07-24T11:36:08.541Z,28.40
2018-07-24T11:38:15.391Z,28.50
2018-07-24T11:40:19.820Z,28.80
2018-07-24T11:42:25.331Z,29.00
2018-07-24T11:44:30.292Z,28.40
2018-07-24T11:46:35.025Z,28.90
2018-07-24T11:50:43.948Z,28.70
2018-07-24T11:52:48.396Z,28.60
2018-07-24T11:54:52.851Z,28.10
2018-07-24T11:56:57.290Z,27.80
2018-07-24T11:59:01.773Z,27.90
2018-07-24T12:01:06.287Z,28.10
2018-07-24T12:05:15.467Z,27.80
2018-07-24T12:09:24.221Z,27.30
2018-07-24T12:11:28.668Z,27.30
2018-07-24T12:15:37.356Z,27.10
2018-07-24T12:17:41.886Z,27.10
2018-07-24T12:19:46.420Z,27.10
2018-07-24T12:21:50.914Z,27.10
2018-07-24T12:23:55.453Z,26.80
2018-07-24T12:25:59.934Z,26.40
2018-07-24T12:28:05.446Z,26.20
2018-07-24T12:30:10.063Z,26.50
2018-07-24T12:32:14.611Z,26.00
2018-07-24T12:34:19.970Z,26.00
2018-07-24T12:36:24.499Z,25.80
2018-07-24T12:38:28.946Z,25.70
2018-07-24T12:40:33.475Z,26.10
2018-07-24T12:42:38.226Z,26.10
2018-07-24T12:44:42.690Z,25.80
2018-07-24T12:46:47.260Z,25.70
2018-07-24T12:48:51.781Z,25.40
2018-07-24T12:50:56.250Z,25.20
2018-07-24T12:53:00.693Z,25.20
2018-07-24T12:55:05.209Z,25.30
2018-07-24T12:57:09.738Z,25.30
2018-07-24T12:59:15.951Z,25.60
2018-07-24T13:03:26.461Z,25.30
2018-07-24T13:05:31.027Z,25.40
2018-07-24T13:07:36.771Z,25.80
2018-07-24T13:09:43.908Z,25.70
2018-07-24T13:11:48.505Z,25.50
2018-07-24T13:13:53.016Z,25.40
2018-07-24T13:15:57.459Z,25.40
2018-07-24T13:18:02.175Z,25.80
2018-07-24T13:20:06.768Z,25.50
2018-07-24T13:22:11.547Z,25.30
2018-07-24T13:24:16.522Z,25.10
2018-07-24T13:26:21.301Z,25.20
2018-07-24T13:28:25.974Z,24.90
2018-07-24T13:30:30.450Z,24.70
2018-07-24T13:32:35.046Z,24.80
2018-07-24T13:34:41.623Z,25.10
2018-07-24T13:36:46.231Z,24.80
2018-07-24T13:38:50.823Z,25.10
2018-07-24T13:40:55.448Z,25.10
2018-07-24T13:43:00.624Z,25.10
2018-07-24T13:45:05.765Z,25.10
2018-07-24T13:47:10.283Z,24.60
2018-07-24T13:51:20.561Z,25.00
2018-07-24T13:53:25.029Z,25.00
2018-07-24T13:55:29.505Z,24.70
2018-07-24T13:57:34.143Z,24.50
2018-07-24T13:59:38.628Z,24.20
2018-07-24T14:01:43.118Z,24.10
2018-07-24T14:03:47.643Z,23.90
2018-07-24T14:05:52.281Z,23.90
2018-07-24T14:07:56.718Z,23.90
2018-07-24T14:10:01.215Z,23.90
2018-07-24T14:12:05.687Z,23.60
2018-07-24T14:14:10.528Z,24.20
2018-07-24T14:16:15.030Z,23.80
2018-07-24T14:18:19.467Z,23.80
2018-07-24T14:20:23.958Z,23.50
2018-07-24T14:22:28.558Z,23.30
2018-07-24T14:24:33.003Z,23.20
2018-07-24T14:26:37.507Z,23.20
2018-07-24T14:28:41.948Z,23.40
2018-07-24T14:30:46.586Z,23.40
2018-07-24T14:32:51.216Z,23.30
2018-07-24T14:34:55.706Z,24.00
2018-07-24T14:37:01.149Z,23.50
2018-07-24T14:39:10.396Z,23.30
2018-07-24T14:41:14.939Z,23.30
2018-07-24T14:43:19.641Z,23.50
2018-07-24T14:45:25.194Z,23.20
2018-07-24T14:47:29.806Z,23.20
2018-07-24T14:49:35.038Z,22.70
2018-07-24T14:53:44.949Z,23.10
2018-07-24T14:55:49.440Z,23.00
2018-07-24T14:57:54.323Z,22.70
2018-07-24T14:59:59.277Z,22.60
2018-07-24T15:02:03.883Z,22.70
2018-07-24T15:04:09.023Z,22.80
2018-07-24T15:06:13.543Z,22.80
2018-07-24T15:08:18.145Z,22.60
2018-07-24T15:12:26.882Z,22.70
2018-07-24T15:14:31.391Z,22.60
2018-07-24T15:16:35.875Z,22.60
2018-07-24T15:20:45.674Z,22.60
2018-07-24T15:22:50.148Z,22.70
2018-07-24T15:24:54.607Z,22.60
2018-07-24T15:26:59.066Z,22.20
2018-07-24T15:29:03.543Z,22.40
2018-07-24T15:31:08.034Z,22.30
2018-07-24T15:33:12.471Z,22.40
2018-07-24T15:35:17.066Z,22.50
2018-07-24T15:37:21.735Z,22.60
2018-07-24T15:39:28.029Z,22.80
2018-07-24T15:41:32.467Z,22.80
2018-07-24T15:43:36.910Z,22.90
2018-07-24T15:45:41.639Z,22.60
2018-07-24T15:47:46.110Z,22.70
2018-07-24T15:49:50.596Z,22.80
2018-07-24T15:51:55.114Z,23.30
2018-07-24T15:53:59.714Z,23.50
2018-07-24T15:56:04.577Z,23.00
2018-07-24T15:58:09.442Z,24.00
2018-07-24T16:00:14.046Z,23.30
2018-07-24T16:02:18.862Z,23.70
2018-07-24T16:04:23.335Z,23.20
2018-07-24T16:06:28.036Z,23.10
2018-07-24T16:08:32.823Z,23.50
2018-07-24T16:10:37.702Z,23.50
2018-07-24T16:14:47.603Z,23.40
2018-07-24T16:16:52.066Z,24.00
2018-07-24T16:18:57.000Z,23.20
2018-07-24T16:21:01.829Z,23.60
2018-07-24T16:23:06.446Z,23.70
2018-07-24T16:25:11.630Z,23.10
2018-07-24T16:27:16.387Z,22.90
2018-07-24T16:29:20.987Z,23.60
2018-07-24T16:31:27.053Z,23.20
2018-07-24T16:33:31.943Z,23.30
2018-07-24T16:35:36.597Z,23.80
2018-07-24T16:37:41.425Z,24.60
2018-07-24T16:39:45.877Z,24.90
2018-07-24T16:41:50.381Z,24.40
2018-07-24T16:43:54.825Z,24.50
2018-07-24T16:45:59.322Z,25.00
2018-07-24T16:48:03.875Z,25.50
2018-07-24T16:50:08.414Z,24.90
2018-07-24T16:52:12.989Z,24.50
2018-07-24T16:54:17.455Z,25.20
2018-07-24T16:56:21.928Z,25.10
2018-07-24T16:58:26.385Z,25.30
2018-07-24T17:00:30.843Z,25.10
2018-07-24T17:02:35.348Z,25.50
2018-07-24T17:04:39.787Z,25.50
2018-07-24T17:06:44.268Z,25.30
2018-07-24T17:08:48.826Z,25.20
2018-07-24T17:10:53.540Z,25.40
2018-07-24T17:12:58.254Z,25.10
2018-07-24T17:15:03.971Z,25.20
2018-07-24T17:17:09.397Z,25.10
2018-07-24T17:19:13.939Z,25.50
2018-07-24T17:21:18.895Z,25.50
2018-07-24T17:23:24.044Z,25.40
2018-07-24T17:25:28.491Z,26.00
2018-07-24T17:27:33.187Z,25.60
2018-07-24T17:29:37.650Z,26.30
2018-07-24T17:31:42.297Z,26.30
2018-07-24T17:33:46.737Z,26.50
2018-07-24T17:35:51.205Z,26.30
2018-07-24T17:37:55.675Z,26.50
2018-07-24T17:40:00.151Z,27.00
2018-07-24T17:42:04.586Z,27.00
2018-07-24T17:44:09.286Z,27.30
2018-07-24T17:46:14.255Z,27.00
2018-07-24T17:48:18.713Z,26.90
2018-07-24T17:50:23.191Z,26.90
2018-07-24T17:52:27.634Z,27.30
2018-07-24T17:54:32.090Z,27.20
2018-07-24T17:56:36.631Z,27.90
2018-07-24T17:58:41.827Z,28.40
2018-07-24T18:02:50.477Z,28.90
2018-07-24T18:06:59.186Z,29.30
2018-07-24T18:09:04.326Z,29.70
2018-07-24T18:11:08.910Z,29.70
2018-07-24T18:13:13.320Z,30.10
2018-07-24T18:17:22.331Z,30.40
2018-07-24T18:19:26.766Z,30.90
2018-07-24T18:21:31.283Z,31.30
2018-07-24T18:23:35.796Z,31.30
2018-07-24T18:25:40.339Z,31.60
2018-07-24T18:27:44.880Z,32.30
2018-07-24T18:29:49.295Z,31.90
2018-07-24T18:36:02.184Z,32.40
2018-07-24T18:38:06.783Z,32.80
2018-07-24T18:40:11.743Z,33.10
2018-07-24T18:42:16.202Z,33.20
2018-07-24T18:44:21.088Z,33.30
2018-07-24T18:46:25.643Z,33.60
2018-07-24T18:48:30.115Z,34.00
2018-07-24T18:50:34.616Z,34.40
2018-07-24T18:52:39.870Z,34.70
2018-07-24T18:54:44.614Z,35.00
2018-07-24T18:56:52.644Z,34.90
2018-07-24T18:58:57.535Z,35.10
2018-07-24T19:01:02.216Z,35.20
2018-07-24T19:03:08.154Z,35.30
2018-07-24T19:09:22.950Z,35.70
2018-07-24T19:11:27.399Z,35.80
2018-07-24T19:13:31.922Z,36.00
2018-07-24T19:15:36.734Z,36.30
2018-07-24T19:21:50.722Z,37.10
2018-07-24T19:23:55.303Z,37.00
2018-07-24T19:30:10.023Z,37.70
2018-07-24T19:32:14.914Z,37.70
2018-07-24T19:34:19.615Z,38.00
2018-07-24T19:36:24.534Z,38.20
2018-07-24T19:38:29.633Z,38.40
2018-07-24T19:40:34.051Z,38.70
2018-07-24T19:42:42.167Z,38.90
2018-07-24T19:44:46.834Z,41.20
2018-07-24T19:46:52.850Z,40.00
2018-07-24T19:48:57.334Z,40.00
2018-07-24T19:51:01.905Z,39.90
2018-07-24T19:53:06.627Z,39.80
2018-07-24T19:55:11.695Z,39.80
2018-07-24T19:57:16.203Z,39.90
2018-07-24T19:59:20.839Z,40.00
2018-07-24T20:01:25.698Z,40.10
2018-07-24T20:03:30.258Z,41.30
2018-07-24T20:05:34.727Z,41.10
2018-07-24T20:07:39.766Z,41.00
2018-07-24T20:09:44.538Z,41.10
2018-07-24T20:11:50.424Z,41.20
2018-07-24T20:13:55.864Z,41.40
2018-07-24T20:16:00.374Z,41.60
2018-07-24T20:18:04.960Z,41.60
2018-07-24T20:20:09.762Z,41.80
2018-07-24T20:22:15.646Z,41.90
2018-07-24T20:24:20.112Z,42.10
2018-07-24T20:26:25.353Z,42.20
2018-07-24T20:28:29.843Z,42.50
2018-07-24T20:30:34.773Z,42.60
2018-07-24T20:32:39.677Z,42.70
2018-07-24T20:34:44.099Z,42.80
2018-07-24T20:36:49.371Z,43.10
2018-07-24T20:38:54.035Z,43.10
2018-07-24T20:43:04.088Z,43.60
2018-07-24T20:45:08.680Z,43.70
2018-07-24T20:47:15.192Z,43.80
2018-07-24T20:49:20.286Z,43.70
2018-07-24T20:51:24.748Z,43.70
2018-07-24T20:53:29.183Z,43.60
2018-07-24T20:55:33.663Z,43.80
2018-07-24T20:59:43.782Z,44.00
2018-07-24T21:01:48.282Z,43.90
2018-07-24T21:03:52.797Z,44.10
2018-07-24T21:05:57.367Z,44.10
2018-07-24T21:08:01.831Z,44.20
2018-07-24T21:10:10.740Z,44.30
2018-07-24T21:12:15.519Z,44.50
2018-07-24T21:14:20.055Z,44.70
2018-07-24T21:16:24.683Z,44.80
2018-07-24T21:18:29.356Z,44.90
2018-07-24T21:20:33.878Z,44.90
2018-07-24T21:22:38.378Z,45.10
2018-07-24T21:24:42.879Z,45.20
2018-07-24T21:26:47.397Z,45.40
2018-07-24T21:28:51.827Z,45.50
2018-07-24T21:30:56.357Z,45.60
2018-07-24T21:33:00.793Z,45.80
2018-07-24T21:35:05.333Z,45.90
2018-07-24T21:39:14.007Z,47.10
2018-07-24T21:41:18.454Z,46.70
2018-07-24T21:43:23.468Z,46.70
2018-07-24T21:45:28.105Z,46.60
2018-07-24T21:47:32.590Z,46.70
2018-07-24T21:49:37.067Z,46.80
2018-07-24T21:51:41.574Z,46.80
2018-07-24T21:53:46.810Z,47.00
2018-07-24T21:57:55.695Z,47.10
2018-07-24T22:00:00.152Z,47.30
2018-07-24T22:02:04.691Z,47.40
2018-07-24T22:04:09.754Z,47.30
2018-07-24T22:06:14.311Z,47.50
2018-07-24T22:08:19.910Z,47.70
2018-07-24T22:10:24.451Z,47.70
2018-07-24T22:12:28.898Z,47.80
2018-07-24T22:14:33.530Z,48.10
2018-07-24T22:18:42.181Z,48.20
2018-07-24T22:20:46.959Z,48.30
2018-07-24T22:22:51.982Z,48.50
2018-07-24T22:27:00.638Z,48.70
2018-07-24T22:29:11.953Z,48.70
2018-07-24T22:31:20.184Z,48.90
2018-07-24T22:33:28.527Z,49.00
2018-07-24T22:35:35.550Z,49.00
2018-07-24T22:39:46.805Z,49.20
2018-07-24T22:41:51.343Z,49.40
2018-07-24T22:43:56.471Z,49.50
2018-07-24T22:46:00.963Z,49.70
2018-07-24T22:48:05.490Z,49.90
2018-07-24T22:50:10.021Z,49.90
2018-07-24T22:52:14.487Z,50.20
2018-07-24T22:54:21.017Z,50.10
2018-07-24T22:56:25.458Z,50.10
2018-07-24T22:58:29.865Z,50.10
2018-07-24T23:00:34.326Z,50.30
2018-07-24T23:02:38.708Z,50.40
2018-07-24T23:04:43.140Z,50.40
2018-07-24T23:06:47.602Z,50.70
2018-07-24T23:08:52.072Z,50.90
2018-07-24T23:10:56.692Z,51.10
2018-07-24T23:13:02.430Z,51.10
2018-07-24T23:15:07.813Z,51.10
2018-07-24T23:17:12.254Z,51.00
2018-07-24T23:19:16.729Z,51.30
2018-07-24T23:21:21.196Z,51.40
2018-07-24T23:23:25.696Z,51.50
2018-07-24T23:25:30.105Z,51.60
2018-07-24T23:27:34.588Z,51.80
2018-07-24T23:29:39.266Z,51.90
2018-07-24T23:31:43.702Z,52.10
2018-07-24T23:33:48.154Z,52.10
2018-07-24T23:35:52.658Z,52.20
2018-07-24T23:37:57.163Z,52.30
2018-07-24T23:40:01.691Z,52.30
2018-07-24T23:42:06.162Z,52.40
2018-07-24T23:44:10.658Z,52.30
2018-07-24T23:46:15.150Z,52.40
2018-07-24T23:48:19.634Z,52.50
2018-07-24T23:50:24.172Z,52.20
2018-07-24T23:52:28.622Z,52.60
2018-07-24T23:54:33.082Z,52.60
2018-07-24T23:56:37.538Z,52.70
2018-07-24T23:58:42.070Z,53.40
